Time;durP1;ratioP1;P1;durP2;ratioP2;P2;SDS_P1;SDS_P2;PMS_P1;PMS_P2;Temp;Humidity;BMP_temperature;BMP_pressure;BME280_temperature;BME280_humidity;BME280_pressure;Samples;Min_cycle;Max_cycle;Signal;HPM_P1;HPM_P2
2022/05/16 00:01:05;;;;;;;14.95;7.03;;;12.60;99.90;;;;;;5046176;28;20507;-58
2022/05/16 00:03:31;;;;;;;16.02;7.72;;;12.60;99.90;;;;;;5028685;28;20049;-58
2022/05/16 00:05:57;;;;;;;15.90;7.25;;;12.60;99.90;;;;;;5042711;28;20131;-58
2022/05/16 00:08:23;;;;;;;14.48;7.65;;;12.60;99.90;;;;;;5046798;28;20179;-57
2022/05/16 00:10:49;;;;;;;16.27;7.28;;;12.50;99.90;;;;;;5042393;28;20059;-57
2022/05/16 00:13:15;;;;;;;13.52;6.70;;;12.50;99.90;;;;;;5031622;28;20033;-58
2022/05/16 00:15:41;;;;;;;13.40;7.22;;;12.50;99.90;;;;;;5017113;28;20946;-56
2022/05/16 00:18:07;;;;;;;16.85;8.00;;;12.50;99.90;;;;;;5018409;28;20037;-53
2022/05/16 00:20:34;;;;;;;20.60;7.38;;;12.50;99.90;;;;;;5045793;28;20102;-56
2022/05/16 00:23:00;;;;;;;18.38;8.43;;;12.50;99.90;;;;;;5048812;28;20037;-53
2022/05/16 00:25:26;;;;;;;15.95;7.57;;;12.50;99.90;;;;;;5044053;28;20492;-54
2022/05/16 00:27:52;;;;;;;15.65;7.85;;;12.50;99.90;;;;;;5032221;28;20041;-50
2022/05/16 00:30:19;;;;;;;18.27;7.78;;;12.60;99.90;;;;;;5052465;28;20041;-51
2022/05/16 00:32:48;;;;;;;12.73;6.75;;;12.50;99.90;;;;;;5052048;28;20052;-50
2022/05/16 00:35:16;;;;;;;13.18;7.45;;;12.50;99.90;;;;;;5052438;28;20480;-50
2022/05/16 00:37:42;;;;;;;18.70;8.13;;;12.50;99.90;;;;;;5052284;28;20457;-51
2022/05/16 00:40:11;;;;;;;14.02;7.05;;;12.50;99.90;;;;;;5052260;28;20059;-50
2022/05/16 00:42:38;;;;;;;11.75;7.10;;;12.50;99.90;;;;;;5051813;28;20124;-54
2022/05/16 00:45:06;;;;;;;12.68;7.22;;;12.50;99.90;;;;;;5051837;28;20098;-50
2022/05/16 00:47:31;;;;;;;13.50;6.95;;;12.40;99.90;;;;;;5042270;28;20041;-50
2022/05/16 00:50:00;;;;;;;14.65;7.93;;;12.40;99.90;;;;;;5034515;28;20043;-51
2022/05/16 00:52:33;;;;;;;13.77;7.65;;;12.50;99.90;;;;;;5051689;28;20044;-54
2022/05/16 00:55:10;;;;;;;16.55;8.60;;;12.40;99.90;;;;;;5033760;28;20045;-52
2022/05/16 00:57:41;;;;;;;16.25;8.40;;;12.40;99.90;;;;;;5033909;28;20044;-53
2022/05/16 01:00:20;;;;;;;13.23;8.05;;;12.40;99.90;;;;;;5052216;28;20378;-51
2022/05/16 01:05:40;;;;;;;12.98;7.55;;;12.40;99.90;;;;;;5051893;28;20503;-51
2022/05/16 01:08:10;;;;;;;14.75;7.82;;;12.40;99.90;;;;;;5051715;28;20472;-51
2022/05/16 01:10:36;;;;;;;13.70;7.78;;;12.40;99.90;;;;;;5051563;28;20037;-53
2022/05/16 01:13:04;;;;;;;14.90;7.05;;;12.40;99.90;;;;;;5046838;28;20485;-55
2022/05/16 01:15:45;;;;;;;11.30;7.03;;;12.40;99.90;;;;;;5046470;28;20055;-56
2022/05/16 01:18:14;;;;;;;14.43;7.38;;;12.60;99.90;;;;;;5047818;28;20255;-55
2022/05/16 01:20:45;;;;;;;12.57;7.88;;;12.40;99.90;;;;;;5054273;28;20033;-55
2022/05/16 01:23:14;;;;;;;14.00;8.10;;;12.40;99.90;;;;;;5034360;28;20077;-55
2022/05/16 01:25:40;;;;;;;14.38;6.88;;;12.40;99.90;;;;;;5036200;28;20119;-56
2022/05/16 01:28:06;;;;;;;14.32;7.78;;;12.30;99.90;;;;;;5046783;28;20131;-56
2022/05/16 01:30:40;;;;;;;17.75;7.65;;;12.40;99.90;;;;;;5026300;28;20040;-56
2022/05/16 01:33:06;;;;;;;13.30;6.88;;;12.40;99.90;;;;;;5044860;28;20124;-55
2022/05/16 01:35:33;;;;;;;12.95;7.30;;;12.40;99.90;;;;;;5044020;28;20039;-55
2022/05/16 01:40:45;;;;;;;12.13;6.38;;;12.30;99.90;;;;;;5051468;28;20044;-56
2022/05/16 01:43:11;;;;;;;10.90;6.65;;;12.40;99.90;;;;;;5048341;28;20048;-56
2022/05/16 01:45:38;;;;;;;11.90;6.30;;;12.30;99.90;;;;;;5032431;28;20041;-56
2022/05/16 01:48:05;;;;;;;16.30;8.10;;;12.40;99.90;;;;;;5025113;28;20047;-54
2022/05/16 01:50:30;;;;;;;13.70;6.78;;;12.30;99.90;;;;;;5049413;28;20044;-55
2022/05/16 01:52:56;;;;;;;14.70;6.35;;;12.30;99.90;;;;;;5052287;28;20322;-56
2022/05/16 01:55:22;;;;;;;13.48;6.97;;;12.30;99.90;;;;;;5030568;28;20427;-55
2022/05/16 01:57:48;;;;;;;11.80;7.22;;;12.30;99.90;;;;;;5026973;28;20033;-56
2022/05/16 02:00:15;;;;;;;15.05;7.10;;;12.30;99.90;;;;;;5026347;28;20046;-56
2022/05/16 02:02:42;;;;;;;12.90;6.53;;;12.20;99.90;;;;;;5030534;28;20130;-56
2022/05/16 02:05:17;;;;;;;9.10;5.70;;;12.20;99.90;;;;;;5056933;28;20052;-55
2022/05/16 02:07:45;;;;;;;11.77;7.28;;;12.20;99.90;;;;;;5028770;28;20041;-55
2022/05/16 02:10:12;;;;;;;11.35;6.88;;;12.20;99.90;;;;;;5048935;28;20049;-56
2022/05/16 02:12:38;;;;;;;11.68;7.20;;;12.20;99.90;;;;;;5045070;28;20516;-56
2022/05/16 02:15:08;;;;;;;9.52;6.53;;;12.20;99.90;;;;;;5045547;28;20037;-55
2022/05/16 02:17:33;;;;;;;9.93;6.70;;;12.20;99.90;;;;;;5051291;28;20033;-56
2022/05/16 02:19:59;;;;;;;9.73;5.95;;;12.20;99.90;;;;;;5026573;28;20055;-56
2022/05/16 02:25:10;;;;;;;8.02;5.50;;;12.20;99.90;;;;;;5051702;28;20051;-54
2022/05/16 02:27:36;;;;;;;11.07;5.70;;;12.20;99.90;;;;;;5053606;28;20040;-56
2022/05/16 02:30:04;;;;;;;13.82;5.93;;;12.20;99.90;;;;;;5046340;28;20620;-53
2022/05/16 02:32:30;;;;;;;11.10;6.00;;;12.10;99.90;;;;;;5043562;28;22145;-55
2022/05/16 02:34:56;;;;;;;10.68;6.28;;;12.10;99.90;;;;;;5042182;28;20044;-56
2022/05/16 02:37:23;;;;;;;11.65;5.70;;;12.10;99.90;;;;;;5040404;28;20041;-55
2022/05/16 02:39:48;;;;;;;11.73;6.25;;;12.10;99.90;;;;;;5049664;28;20438;-54
2022/05/16 02:42:15;;;;;;;10.30;5.43;;;12.10;99.90;;;;;;5046046;28;20155;-55
2022/05/16 02:44:42;;;;;;;11.60;6.07;;;12.10;99.90;;;;;;5045872;28;20060;-57
2022/05/16 02:47:15;;;;;;;10.75;4.90;;;12.10;99.90;;;;;;5045782;28;20037;-57
2022/05/16 02:49:41;;;;;;;11.35;5.13;;;12.00;99.90;;;;;;5051154;28;20051;-58
2022/05/16 02:52:07;;;;;;;9.57;5.78;;;12.10;99.90;;;;;;5052940;28;20040;-57
2022/05/16 02:54:34;;;;;;;11.27;5.32;;;12.10;99.90;;;;;;5033738;28;20037;-57
2022/05/16 02:57:00;;;;;;;11.98;4.97;;;12.00;99.90;;;;;;5041674;28;20401;-57
2022/05/16 02:59:27;;;;;;;9.82;4.22;;;12.00;99.90;;;;;;5048278;28;20457;-57
2022/05/16 03:01:53;;;;;;;8.32;4.28;;;12.00;99.90;;;;;;5043196;28;20898;-56
2022/05/16 03:04:19;;;;;;;12.73;5.05;;;12.00;99.90;;;;;;5033179;28;20039;-57
2022/05/16 03:06:45;;;;;;;7.05;4.90;;;12.00;99.90;;;;;;5027830;28;20481;-57
2022/05/16 03:09:11;;;;;;;8.27;4.18;;;12.00;99.90;;;;;;5014395;28;20045;-57
2022/05/16 03:11:37;;;;;;;11.40;4.40;;;12.00;99.90;;;;;;5045587;28;20095;-57
2022/05/16 03:14:03;;;;;;;10.48;4.22;;;12.00;99.90;;;;;;5038639;28;20049;-57
2022/05/16 03:16:29;;;;;;;9.52;4.40;;;12.00;99.90;;;;;;5036518;28;20397;-57
2022/05/16 03:18:55;;;;;;;7.80;4.47;;;12.00;99.90;;;;;;5035229;28;20041;-57
2022/05/16 03:21:22;;;;;;;12.02;4.90;;;12.00;99.90;;;;;;5021192;28;20078;-57
2022/05/16 03:23:48;;;;;;;8.13;4.45;;;12.00;99.90;;;;;;5037019;28;20059;-56
2022/05/16 03:26:14;;;;;;;9.98;4.10;;;12.00;99.90;;;;;;5030624;28;20508;-56
2022/05/16 03:28:40;;;;;;;9.77;4.00;;;12.00;99.90;;;;;;5025818;28;20037;-55
2022/05/16 03:31:05;;;;;;;8.23;3.35;;;12.00;99.90;;;;;;5021777;28;20128;-57
2022/05/16 03:33:31;;;;;;;8.32;3.95;;;12.00;99.90;;;;;;5034064;28;20037;-57
2022/05/16 03:35:58;;;;;;;12.55;4.05;;;12.00;99.90;;;;;;5036511;28;20037;-58
2022/05/16 03:41:13;;;;;;;6.47;4.25;;;12.00;99.90;;;;;;5047571;28;20053;-58
2022/05/16 03:43:40;;;;;;;10.15;3.80;;;12.00;99.90;;;;;;5046665;28;20037;-58
2022/05/16 03:46:07;;;;;;;6.63;3.70;;;12.00;99.90;;;;;;5025490;28;20052;-58
2022/05/16 03:48:34;;;;;;;9.70;3.80;;;11.90;99.90;;;;;;5044440;28;20495;-58
2022/05/16 03:51:01;;;;;;;6.80;3.42;;;12.00;99.90;;;;;;5041715;28;20072;-55
2022/05/16 03:53:27;;;;;;;6.78;3.60;;;12.00;99.90;;;;;;5057807;28;20067;-56
2022/05/16 03:55:53;;;;;;;4.88;3.47;;;11.90;99.90;;;;;;5039750;28;20061;-57
2022/05/16 03:58:19;;;;;;;7.43;3.42;;;11.90;99.90;;;;;;5033020;28;20527;-58
2022/05/16 04:00:45;;;;;;;10.13;4.10;;;11.90;99.90;;;;;;5052129;28;20115;-57
2022/05/16 04:03:11;;;;;;;8.10;3.60;;;11.90;99.90;;;;;;5028161;28;20040;-58
2022/05/16 04:05:38;;;;;;;12.15;4.30;;;11.90;99.90;;;;;;5051817;28;20044;-57
2022/05/16 04:08:04;;;;;;;6.55;3.65;;;11.90;99.90;;;;;;5046496;28;20068;-57
2022/05/16 04:10:30;;;;;;;6.78;3.65;;;11.90;99.90;;;;;;5015640;28;20109;-57
2022/05/16 04:12:56;;;;;;;5.35;3.42;;;11.90;99.90;;;;;;5046754;28;20045;-57
2022/05/16 04:15:22;;;;;;;6.75;3.05;;;11.90;99.90;;;;;;5058268;28;20044;-58
2022/05/16 04:17:49;;;;;;;6.97;3.42;;;11.90;99.90;;;;;;5062231;22;20653;-46
2022/05/16 04:20:17;;;;;;;7.70;3.60;;;11.90;99.90;;;;;;5047108;28;20503;-46
2022/05/16 04:22:43;;;;;;;7.93;3.45;;;11.90;99.90;;;;;;5046616;28;20141;-47
2022/05/16 04:25:12;;;;;;;7.13;3.03;;;11.90;99.90;;;;;;5041972;28;20596;-46
2022/05/16 04:27:38;;;;;;;6.82;3.25;;;11.90;99.90;;;;;;5046655;28;20075;-48
2022/05/16 04:30:05;;;;;;;7.13;2.90;;;11.90;99.90;;;;;;5048283;28;20041;-47
2022/05/16 04:32:31;;;;;;;7.75;3.20;;;12.00;99.90;;;;;;5056118;28;20032;-48
2022/05/16 04:34:57;;;;;;;7.20;3.03;;;12.00;99.90;;;;;;5030204;28;20105;-47
2022/05/16 04:37:23;;;;;;;7.45;2.97;;;12.00;99.90;;;;;;5052573;28;20123;-47
2022/05/16 04:39:49;;;;;;;6.13;2.78;;;12.00;99.90;;;;;;5050877;28;20044;-48
2022/05/16 04:44:59;;;;;;;6.25;2.83;;;12.10;99.90;;;;;;5027198;28;20465;-46
2022/05/16 04:47:26;;;;;;;6.32;3.10;;;12.10;99.90;;;;;;5048743;28;20349;-48
2022/05/16 04:49:53;;;;;;;7.35;3.13;;;12.20;99.90;;;;;;5043367;28;20106;-48
2022/05/16 04:52:19;;;;;;;7.85;2.72;;;12.20;99.90;;;;;;5045332;28;20033;-48
2022/05/16 04:54:48;;;;;;;7.53;2.88;;;12.30;99.90;;;;;;5042764;28;20045;-48
2022/05/16 04:57:14;;;;;;;10.40;3.10;;;12.30;99.90;;;;;;5025125;28;20083;-48
2022/05/16 04:59:40;;;;;;;8.55;2.85;;;12.40;99.90;;;;;;5043523;28;20037;-49
2022/05/16 05:02:06;;;;;;;5.35;2.50;;;12.40;99.90;;;;;;5040291;28;20037;-47
2022/05/16 05:04:31;;;;;;;7.13;2.90;;;12.40;99.90;;;;;;5038753;28;20543;-47
2022/05/16 05:06:57;;;;;;;4.85;2.83;;;12.50;99.90;;;;;;5043633;28;20045;-48
2022/05/16 05:09:23;;;;;;;10.27;3.67;;;12.60;99.90;;;;;;5053670;28;20087;-47
2022/05/16 05:14:33;;;;;;;;;;;12.80;99.90;;;;;;5045051;28;20053;-49
2022/05/16 05:17:11;;;;;;;6.18;2.72;;;12.90;99.90;;;;;;5043239;28;20426;-51
2022/05/16 05:19:40;;;;;;;6.75;2.92;;;13.00;99.90;;;;;;5041395;28;20045;-49
2022/05/16 05:22:07;;;;;;;9.23;3.60;;;13.20;99.90;;;;;;5038500;28;20041;-49
2022/05/16 05:24:32;;;;;;;5.47;2.90;;;13.30;99.90;;;;;;5022757;28;20111;-49
2022/05/16 05:26:59;;;;;;;9.80;2.90;;;13.40;99.90;;;;;;5025517;28;20037;-49
2022/05/16 05:29:25;;;;;;;8.32;3.08;;;13.40;99.90;;;;;;5022108;28;20044;-48
2022/05/16 05:31:51;;;;;;;8.15;2.92;;;13.50;99.90;;;;;;5040066;28;20099;-49
2022/05/16 05:34:17;;;;;;;10.27;3.75;;;13.50;99.90;;;;;;5039463;28;20087;-48
2022/05/16 05:36:43;;;;;;;7.00;3.13;;;13.60;99.90;;;;;;5055321;28;20037;-49
2022/05/16 05:39:13;;;;;;;5.32;2.50;;;13.60;99.90;;;;;;5053370;28;20033;-49
2022/05/16 05:41:40;;;;;;;5.55;2.42;;;13.80;99.90;;;;;;5024442;28;20534;-51
2022/05/16 05:44:05;;;;;;;7.35;2.97;;;13.90;99.90;;;;;;5041699;28;20044;-50
2022/05/16 05:46:36;;;;;;;6.47;3.65;;;14.00;99.90;;;;;;5039202;28;20056;-51
2022/05/16 05:49:03;;;;;;;6.90;3.50;;;14.10;99.90;;;;;;5039470;28;20052;-49
2022/05/16 05:51:28;;;;;;;5.07;2.60;;;14.10;99.90;;;;;;5014404;28;20043;-49
2022/05/16 05:53:54;;;;;;;6.38;2.97;;;14.20;99.90;;;;;;5044029;28;20038;-48
2022/05/16 05:56:20;;;;;;;6.57;3.35;;;14.10;99.90;;;;;;5042096;28;20032;-47
2022/05/16 05:58:46;;;;;;;7.60;2.72;;;14.10;99.90;;;;;;5048290;28;20085;-48
2022/05/16 06:01:12;;;;;;;8.73;3.15;;;14.20;99.90;;;;;;5048000;28;20043;-50
2022/05/16 06:03:38;;;;;;;7.25;3.10;;;14.30;99.90;;;;;;5051278;28;20123;-49
2022/05/16 06:06:04;;;;;;;8.82;3.22;;;14.40;99.90;;;;;;5045239;28;20179;-49
2022/05/16 06:08:30;;;;;;;6.38;2.88;;;14.50;99.90;;;;;;5055959;28;20500;-51
2022/05/16 06:10:56;;;;;;;8.35;3.20;;;14.60;99.90;;;;;;5031301;28;20056;-51
2022/05/16 06:13:22;;;;;;;7.28;3.03;;;14.70;99.90;;;;;;5048715;28;20111;-49
2022/05/16 06:15:48;;;;;;;7.97;3.42;;;14.80;99.90;;;;;;5044606;28;21622;-48
2022/05/16 06:18:13;;;;;;;8.77;2.92;;;14.90;99.90;;;;;;5039061;28;20515;-50
2022/05/16 06:20:40;;;;;;;9.95;2.83;;;14.80;99.90;;;;;;5026511;28;20438;-50
2022/05/16 06:23:06;;;;;;;6.57;2.92;;;15.10;99.90;;;;;;5048077;28;20041;-49
2022/05/16 06:25:32;;;;;;;5.68;2.90;;;15.30;99.90;;;;;;5048790;28;20047;-49
2022/05/16 06:28:04;;;;;;;9.55;3.35;;;15.30;99.90;;;;;;5052091;28;20032;-49
2022/05/16 06:30:32;;;;;;;8.02;3.80;;;15.50;99.90;;;;;;5026941;28;20115;-49
2022/05/16 06:32:58;;;;;;;7.88;3.58;;;15.50;99.90;;;;;;5047603;28;20528;-49
2022/05/16 06:35:24;;;;;;;8.32;3.65;;;15.50;99.90;;;;;;5041137;28;20076;-47
2022/05/16 06:37:50;;;;;;;9.15;2.97;;;15.50;99.90;;;;;;5042474;28;20116;-49
2022/05/16 06:40:17;;;;;;;6.45;2.50;;;15.60;99.90;;;;;;5048840;28;20056;-49
2022/05/16 06:42:45;;;;;;;6.53;3.03;;;15.70;99.90;;;;;;5048508;28;20128;-50
2022/05/16 06:45:12;;;;;;;8.57;2.90;;;15.80;99.90;;;;;;5050764;28;20062;-48
2022/05/16 06:47:38;;;;;;;7.97;3.03;;;15.90;99.90;;;;;;5033020;28;20519;-47
2022/05/16 06:50:04;;;;;;;7.68;2.75;;;16.00;99.90;;;;;;5053332;28;20052;-50
2022/05/16 06:52:30;;;;;;;6.30;2.65;;;16.20;99.90;;;;;;5048205;28;20032;-48
2022/05/16 06:54:56;;;;;;;6.00;2.88;;;16.30;99.90;;;;;;5018996;28;20037;-49
2022/05/16 06:57:22;;;;;;;8.70;2.97;;;16.50;99.90;;;;;;5052351;28;20381;-50
2022/05/16 06:59:48;;;;;;;7.88;3.20;;;16.60;99.90;;;;;;5053752;28;20040;-48
2022/05/16 07:02:14;;;;;;;7.55;3.25;;;16.70;99.90;;;;;;5053081;28;20059;-49
2022/05/16 07:04:40;;;;;;;8.95;3.60;;;16.80;99.70;;;;;;5046488;28;20036;-50
2022/05/16 07:07:11;;;;;;;8.80;3.55;;;16.90;99.30;;;;;;5031563;28;20057;-54
2022/05/16 07:09:39;;;;;;;9.25;3.05;;;17.00;98.30;;;;;;5053130;28;20530;-49
2022/05/16 07:12:06;;;;;;;11.32;3.80;;;17.00;98.60;;;;;;5027009;28;20048;-50
2022/05/16 07:14:34;;;;;;;8.40;3.47;;;17.10;98.70;;;;;;5048813;28;20032;-51
2022/05/16 07:17:01;;;;;;;6.20;3.08;;;17.30;98.50;;;;;;5027318;28;20029;-51
2022/05/16 07:19:31;;;;;;;11.20;3.45;;;17.40;98.80;;;;;;5025218;28;20079;-52
2022/05/16 07:21:58;;;;;;;10.77;3.10;;;17.40;98.70;;;;;;5052099;28;20840;-50
2022/05/16 07:24:24;;;;;;;7.18;3.60;;;17.50;98.60;;;;;;5048072;28;20271;-48
2022/05/16 07:29:35;;;;;;;7.28;3.45;;;17.50;98.10;;;;;;5050326;28;20047;-52
2022/05/16 07:32:01;;;;;;;6.68;2.95;;;17.50;97.80;;;;;;5026579;28;20034;-49
2022/05/16 07:34:26;;;;;;;8.27;3.22;;;17.50;97.50;;;;;;5051566;28;20523;-50
2022/05/16 07:36:52;;;;;;;6.55;2.90;;;17.50;97.60;;;;;;5053185;28;20029;-52
2022/05/16 07:39:18;;;;;;;11.68;3.85;;;17.50;98.00;;;;;;5062530;28;20036;-48
2022/05/16 07:41:44;;;;;;;6.90;3.22;;;17.70;98.10;;;;;;5052441;28;20136;-48
2022/05/16 07:44:10;;;;;;;12.40;4.13;;;17.80;98.10;;;;;;5050946;28;20041;-49
2022/05/16 07:46:36;;;;;;;7.97;2.97;;;17.90;97.30;;;;;;5038051;28;20445;-50
2022/05/16 07:49:01;;;;;;;6.63;3.30;;;18.00;97.30;;;;;;5048882;28;20048;-49
2022/05/16 07:51:27;;;;;;;9.43;3.40;;;18.20;97.40;;;;;;5039517;28;20523;-55
2022/05/16 07:53:53;;;;;;;7.78;3.30;;;18.30;97.60;;;;;;5053053;28;20045;-49
2022/05/16 07:56:19;;;;;;;11.57;3.50;;;18.50;97.30;;;;;;5042421;28;20211;-49
2022/05/16 07:58:45;;;;;;;5.28;2.53;;;18.70;96.80;;;;;;5051671;28;20033;-48
2022/05/16 08:01:11;;;;;;;8.55;3.25;;;18.80;96.80;;;;;;5054775;28;20415;-47
2022/05/16 08:03:36;;;;;;;9.02;4.03;;;19.00;96.80;;;;;;5057262;28;20049;-50
2022/05/16 08:06:02;;;;;;;8.73;3.90;;;19.10;96.50;;;;;;5050214;28;20840;-52
2022/05/16 08:11:13;;;;;;;10.63;4.35;;;19.30;96.30;;;;;;5035874;28;20040;-51
2022/05/16 08:13:41;;;;;;;8.82;3.55;;;19.60;96.00;;;;;;5032016;28;20041;-50
2022/05/16 08:16:07;;;;;;;17.75;3.85;;;19.80;96.00;;;;;;5048505;28;20037;-51
2022/05/16 08:18:33;;;;;;;9.50;3.35;;;19.90;95.20;;;;;;5049191;28;20516;-52
2022/05/16 08:21:02;;;;;;;6.43;3.30;;;19.90;94.70;;;;;;5057835;28;20133;-52
2022/05/16 08:23:30;;;;;;;9.00;3.45;;;19.90;94.20;;;;;;5053021;28;20540;-48
2022/05/16 08:26:01;;;;;;;7.13;3.10;;;19.80;93.80;;;;;;5050339;28;20535;-52
2022/05/16 08:28:28;;;;;;;11.55;3.70;;;19.70;93.60;;;;;;5050978;28;20496;-50
2022/05/16 08:30:54;;;;;;;10.20;4.30;;;19.70;94.40;;;;;;5052168;28;20446;-51
2022/05/16 08:33:19;;;;;;;8.10;3.50;;;19.80;94.20;;;;;;5048324;28;20033;-52
2022/05/16 08:39:51;;;;;;;11.63;4.88;;;19.90;94.00;;;;;;5056347;28;20091;-50
2022/05/16 08:41:18;;;;;;;9.00;3.67;;;19.90;93.80;;;;;;5043362;28;21870;-58
2022/05/16 08:43:54;;;;;;;8.50;3.65;;;20.10;94.00;;;;;;5027818;28;20489;-54
2022/05/16 08:46:34;;;;;;;10.48;3.92;;;20.20;94.40;;;;;;5038770;28;20082;-51
2022/05/16 08:49:33;;;;;;;6.47;3.17;;;20.20;94.00;;;;;;5046290;28;20122;-52
2022/05/16 08:52:09;;;;;;;9.93;3.63;;;20.40;93.50;;;;;;5016901;28;20438;-51
2022/05/16 08:54:48;;;;;;;10.60;3.80;;;20.40;93.40;;;;;;5023939;28;20052;-49
2022/05/16 08:57:30;;;;;;;11.23;3.85;;;20.50;93.80;;;;;;5038647;28;20409;-50
2022/05/16 09:00:08;;;;;;;7.88;3.47;;;20.60;93.40;;;;;;5047407;28;20876;-48
2022/05/16 09:02:36;;;;;;;8.43;3.92;;;20.90;93.10;;;;;;5044636;28;20408;-51
2022/05/16 09:05:23;;;;;;;6.38;3.65;;;20.90;92.40;;;;;;5042741;28;20215;-53
2022/05/16 09:07:52;;;;;;;10.38;3.63;;;21.20;92.70;;;;;;5048278;28;20703;-51
2022/05/16 09:10:24;;;;;;;8.93;3.67;;;21.30;91.60;;;;;;5045220;28;20503;-50
2022/05/16 09:13:12;;;;;;;10.80;3.60;;;21.50;90.90;;;;;;5047064;28;20174;-49
2022/05/16 09:15:51;;;;;;;8.85;3.45;;;21.70;91.50;;;;;;5052062;28;20500;-52
2022/05/16 09:18:24;;;;;;;7.80;3.40;;;21.60;90.30;;;;;;5050374;28;20037;-51
2022/05/16 09:21:05;;;;;;;9.93;3.40;;;21.70;90.70;;;;;;5055755;28;20029;-48
2022/05/16 09:23:59;;;;;;;9.40;3.35;;;21.80;90.90;;;;;;5052971;28;20032;-50
2022/05/16 09:26:49;;;;;;;7.00;2.90;;;22.20;91.20;;;;;;5045024;28;20516;-50
2022/05/16 09:29:32;;;;;;;8.88;3.60;;;22.40;88.40;;;;;;5038694;28;20044;-51
2022/05/16 09:32:28;;;;;;;9.52;3.22;;;22.60;87.40;;;;;;5049909;28;20033;-53
2022/05/16 09:34:54;;;;;;;7.47;3.20;;;22.90;85.60;;;;;;5044033;28;20136;-51
2022/05/16 09:37:20;;;;;;;6.95;3.38;;;22.90;83.80;;;;;;5048359;28;20045;-49
2022/05/16 09:39:50;;;;;;;9.63;3.22;;;23.10;84.90;;;;;;5039622;28;20051;-50
2022/05/16 09:42:22;;;;;;;7.65;3.40;;;23.30;83.70;;;;;;5028532;28;20056;-50
2022/05/16 09:44:58;;;;;;;7.78;3.30;;;23.40;82.90;;;;;;5054817;28;20041;-52
2022/05/16 09:47:29;;;;;;;8.35;3.33;;;23.50;82.20;;;;;;5052974;28;20045;-54
2022/05/16 09:50:11;;;;;;;6.85;3.30;;;23.30;80.20;;;;;;5051128;28;20554;-53
2022/05/16 09:52:47;;;;;;;7.18;3.53;;;23.10;79.50;;;;;;5050705;28;20041;-53
2022/05/16 09:55:24;;;;;;;10.82;3.17;;;22.90;80.80;;;;;;5051026;28;20045;-55
2022/05/16 09:57:56;;;;;;;9.43;3.45;;;22.80;83.50;;;;;;5050914;28;20087;-55
2022/05/16 10:00:38;;;;;;;10.30;4.00;;;22.80;83.10;;;;;;5034070;28;20389;-54
2022/05/16 10:03:22;;;;;;;7.40;3.33;;;22.90;83.60;;;;;;5036648;28;20045;-51
2022/05/16 10:05:51;;;;;;;9.57;3.65;;;23.00;82.90;;;;;;5054155;28;20041;-51
2022/05/16 10:08:34;;;;;;;9.25;3.33;;;23.10;82.70;;;;;;5054699;28;20037;-51
2022/05/16 10:11:05;;;;;;;12.10;4.00;;;23.10;81.50;;;;;;5054453;28;20037;-50
2022/05/16 10:13:32;;;;;;;10.80;3.10;;;23.20;81.40;;;;;;5034103;28;20056;-51
2022/05/16 10:16:00;;;;;;;13.80;3.28;;;23.30;82.50;;;;;;5048341;28;20468;-51
2022/05/16 10:18:29;;;;;;;7.18;3.10;;;23.40;82.10;;;;;;5069549;28;20120;-55
2022/05/16 10:21:01;;;;;;;8.23;4.18;;;23.50;80.90;;;;;;5111531;22;20051;-63
2022/05/16 10:23:38;;;;;;;6.63;3.15;;;23.40;81.00;;;;;;5045808;28;20040;-63
2022/05/16 10:26:17;;;;;;;8.10;3.22;;;23.40;81.40;;;;;;5072813;28;20046;-63
2022/05/16 10:29:07;;;;;;;8.35;4.38;;;23.30;80.30;;;;;;5038983;28;20517;-63
2022/05/16 10:34:35;;;;;;;5.95;3.05;;;23.10;82.20;;;;;;5048450;28;20040;-64
2022/05/16 10:37:02;;;;;;;10.52;3.80;;;23.10;83.00;;;;;;5043328;28;20108;-62
2022/05/16 10:39:30;;;;;;;10.68;3.38;;;23.00;83.00;;;;;;5047816;28;20051;-62
2022/05/16 10:42:10;;;;;;;7.53;4.13;;;23.00;82.80;;;;;;5046662;28;20075;-62
2022/05/16 10:44:58;;;;;;;11.00;3.92;;;22.90;83.10;;;;;;5035203;28;20048;-63
2022/05/16 10:48:05;;;;;;;15.00;3.85;;;22.80;82.40;;;;;;5023528;28;20071;-62
2022/05/16 10:51:08;;;;;;;13.05;4.13;;;22.90;81.90;;;;;;5040684;28;20048;-60
2022/05/16 10:54:00;;;;;;;9.30;3.15;;;22.90;82.60;;;;;;4997708;28;20040;-61
2022/05/16 10:57:00;;;;;;;9.18;3.67;;;23.00;82.00;;;;;;5035030;28;20036;-62
2022/05/16 10:59:48;;;;;;;8.82;3.13;;;23.10;82.10;;;;;;5042201;28;20380;-62
2022/05/16 11:02:32;;;;;;;9.82;3.83;;;23.30;83.50;;;;;;5039676;28;20043;-62
2022/05/16 11:05:17;;;;;;;12.70;4.40;;;23.50;82.00;;;;;;5043631;28;20059;-62
2022/05/16 11:08:17;;;;;;;12.38;3.83;;;23.70;81.30;;;;;;5049814;28;20048;-63
2022/05/16 11:10:52;;;;;;;8.77;3.65;;;23.80;80.50;;;;;;5041130;28;20060;-64
2022/05/16 11:13:40;;;;;;;7.97;3.97;;;24.10;80.60;;;;;;5043024;28;20596;-62
2022/05/16 11:16:28;;;;;;;10.25;3.60;;;24.30;80.40;;;;;;5030721;28;20043;-64
2022/05/16 11:19:22;;;;;;;10.65;4.13;;;24.50;78.00;;;;;;5046269;28;20087;-64
2022/05/16 11:22:13;;;;;;;12.25;4.18;;;24.50;78.80;;;;;;5035417;28;20489;-64
2022/05/16 11:24:54;;;;;;;10.95;4.30;;;24.50;79.40;;;;;;5025403;28;20077;-61
2022/05/16 11:27:34;;;;;;;7.03;3.40;;;24.50;78.60;;;;;;5029615;28;20052;-66
2022/05/16 11:30:03;;;;;;;10.25;3.72;;;24.80;78.10;;;;;;5046371;28;20059;-63
2022/05/16 11:32:54;;;;;;;10.90;3.70;;;24.80;76.90;;;;;;5046576;28;20089;-64
2022/05/16 11:35:31;;;;;;;9.98;3.72;;;24.90;77.50;;;;;;5044366;28;20091;-62
2022/05/16 11:38:21;;;;;;;10.25;4.32;;;25.00;77.10;;;;;;5045339;28;20052;-64
2022/05/16 11:40:49;;;;;;;9.30;3.67;;;25.40;77.10;;;;;;5041461;28;20387;-65
2022/05/16 11:43:24;;;;;;;9.77;4.00;;;25.50;74.80;;;;;;5051289;28;20038;-65
2022/05/16 11:46:08;;;;;;;9.57;4.03;;;25.80;75.60;;;;;;5032944;28;20036;-63
2022/05/16 11:49:02;;;;;;;9.52;3.92;;;26.10;76.00;;;;;;5046357;28;20032;-64
2022/05/16 11:51:55;;;;;;;9.48;4.10;;;26.40;75.10;;;;;;5022799;28;20832;-65
2022/05/16 11:54:36;;;;;;;9.90;3.55;;;26.20;71.20;;;;;;5041541;28;20048;-62
2022/05/16 12:02:48;;;;;;;11.30;4.45;;;25.40;74.30;;;;;;5046643;28;20111;-63
2022/05/16 12:05:32;;;;;;;11.18;4.10;;;25.20;74.30;;;;;;5035428;28;20408;-62
2022/05/16 12:08:14;;;;;;;;;;;25.10;74.50;;;;;;5017694;28;20132;-60
2022/05/16 12:11:04;;;;;;;10.38;4.15;;;24.90;73.80;;;;;;5078044;28;19923;-62
2022/05/16 12:13:34;;;;;;;10.18;4.57;;;24.80;76.30;;;;;;5051073;28;20074;-62
2022/05/16 12:16:17;;;;;;;11.63;5.32;;;24.70;77.70;;;;;;5057151;28;20270;-62
2022/05/16 12:18:44;;;;;;;10.43;5.15;;;24.70;78.00;;;;;;5042915;28;20048;-65
2022/05/16 12:21:19;;;;;;;10.77;5.05;;;24.50;79.00;;;;;;5054991;28;20123;-62
2022/05/16 12:23:48;;;;;;;9.52;4.97;;;24.40;79.30;;;;;;5041160;28;20067;-64
2022/05/16 12:26:36;;;;;;;10.05;4.53;;;24.30;79.50;;;;;;5029152;28;20067;-64
2022/05/16 12:29:08;;;;;;;11.70;4.45;;;24.20;79.80;;;;;;4987217;28;20056;-64
2022/05/16 12:31:49;;;;;;;9.23;5.43;;;24.10;80.60;;;;;;5039647;28;20493;-62
2022/05/16 12:34:35;;;;;;;12.00;4.78;;;24.30;81.50;;;;;;5014979;28;20049;-58
2022/05/16 12:37:05;;;;;;;12.85;5.75;;;24.70;82.70;;;;;;5007293;28;20127;-60
2022/05/16 12:39:51;;;;;;;12.27;7.07;;;25.00;81.40;;;;;;5036887;28;20119;-64
2022/05/16 12:42:32;;;;;;;8.95;6.13;;;25.10;79.30;;;;;;5035116;28;20241;-63
2022/05/16 12:45:30;;;;;;;14.38;6.93;;;25.00;78.20;;;;;;5027772;28;20045;-62
2022/05/16 12:48:28;;;;;;;10.70;6.07;;;24.90;78.00;;;;;;5004575;28;20245;-62
2022/05/16 12:51:10;;;;;;;13.55;5.88;;;24.90;78.70;;;;;;5042537;28;20043;-63
2022/05/16 12:54:13;;;;;;;11.50;6.30;;;25.20;79.00;;;;;;5036437;28;20408;-62
2022/05/16 12:56:57;;;;;;;21.37;6.60;;;25.20;79.30;;;;;;5038157;28;20032;-62
2022/05/16 12:59:47;;;;;;;11.60;7.85;;;25.20;76.60;;;;;;5044828;28;20381;-62
2022/05/16 13:02:22;;;;;;;12.98;8.32;;;25.40;77.50;;;;;;5029355;28;20048;-62
2022/05/16 13:05:12;;;;;;;11.00;7.88;;;25.50;77.70;;;;;;5020502;28;20157;-60
2022/05/16 13:07:38;;;;;;;12.25;8.18;;;25.50;76.00;;;;;;5033578;28;20503;-61
2022/05/16 13:10:09;;;;;;;10.65;7.97;;;25.20;74.50;;;;;;5016047;28;20109;-61
2022/05/16 13:12:57;;;;;;;14.35;10.13;;;25.10;76.40;;;;;;5016260;28;20033;-62
2022/05/16 13:15:29;;;;;;;13.55;10.63;;;25.10;76.80;;;;;;5020741;28;20133;-61
2022/05/16 13:17:58;;;;;;;13.23;9.30;;;25.10;76.70;;;;;;5025812;28;20550;-63
2022/05/16 13:20:34;;;;;;;13.90;9.48;;;25.10;77.10;;;;;;5049125;28;20045;-62
2022/05/16 13:23:01;;;;;;;12.75;9.57;;;25.40;77.50;;;;;;5047029;28;20044;-61
2022/05/16 13:25:28;;;;;;;11.55;9.23;;;25.70;77.90;;;;;;5031652;28;20128;-63
2022/05/16 13:30:42;;;;;;;17.08;10.95;;;26.30;75.00;;;;;;5047576;28;20588;-63
2022/05/16 13:33:31;;;;;;;11.40;9.07;;;26.40;74.10;;;;;;5041708;28;20457;-64
2022/05/16 13:36:19;;;;;;;12.60;10.60;;;26.60;76.10;;;;;;5027901;28;20045;-62
2022/05/16 13:38:52;;;;;;;14.55;10.88;;;26.60;74.30;;;;;;5038496;28;20099;-64
2022/05/16 13:41:28;;;;;;;20.63;11.75;;;26.50;74.40;;;;;;5044128;28;20068;-64